createdAt,value
2022-08-19T00:00:09.545Z,72.60
2022-08-19T00:00:17.717Z,72.53
2022-08-19T00:00:29.558Z,72.40
2022-08-19T00:00:37.610Z,72.63
2022-08-19T00:00:49.537Z,72.48
2022-08-19T00:00:57.588Z,72.67
2022-08-19T00:01:07.607Z,72.47
2022-08-19T00:01:28.664Z,72.56
2022-08-19T00:01:30.594Z,73.06
2022-08-19T00:01:39.204Z,72.78
2022-08-19T00:01:53.134Z,72.59
2022-08-19T00:01:59.343Z,72.89
2022-08-19T00:02:09.147Z,72.62
2022-08-19T00:02:21.130Z,72.47
2022-08-19T00:02:29.206Z,72.62
2022-08-19T00:02:50.062Z,72.41
2022-08-19T00:02:50.764Z,73.07
2022-08-19T00:03:00.770Z,72.77
2022-08-19T00:03:12.727Z,72.69
2022-08-19T00:03:20.728Z,72.75
2022-08-19T00:03:32.697Z,72.59
2022-08-19T00:03:42.699Z,72.79
2022-08-19T00:03:52.698Z,72.68
2022-08-19T00:04:02.700Z,72.63
2022-08-19T00:04:10.740Z,72.61
2022-08-19T00:04:22.724Z,72.48
2022-08-19T00:04:32.718Z,72.67
2022-08-19T00:04:42.222Z,72.58
2022-08-19T00:04:52.754Z,72.55
2022-08-19T00:05:02.714Z,72.57
2022-08-19T00:05:10.782Z,72.48
2022-08-19T00:05:22.673Z,72.36
2022-08-19T00:05:32.660Z,72.62
2022-08-19T00:05:40.709Z,72.58
2022-08-19T00:05:52.680Z,72.48
2022-08-19T00:06:02.669Z,72.66
2022-08-19T00:06:10.708Z,72.62
2022-08-19T00:06:22.659Z,72.51
2022-08-19T00:06:32.660Z,72.73
2022-08-19T00:06:42.652Z,72.62
2022-08-19T00:06:50.697Z,72.61
2022-08-19T00:07:01.502Z,72.43
2022-08-19T00:07:10.719Z,72.58
2022-08-19T00:07:22.651Z,72.54
2022-08-19T00:07:32.650Z,72.69
2022-08-19T00:07:42.660Z,72.63
2022-08-19T00:07:52.649Z,72.54
2022-08-19T00:08:00.699Z,72.53
2022-08-19T00:08:12.649Z,72.39
2022-08-19T00:08:22.657Z,72.60
2022-08-19T00:08:30.689Z,72.55
2022-08-19T00:08:40.699Z,72.40
2022-08-19T00:08:52.641Z,72.62
2022-08-19T00:09:00.687Z,72.54
2022-08-19T00:09:12.702Z,72.37
2022-08-19T00:09:22.660Z,72.61
2022-08-19T00:09:30.680Z,72.53
2022-08-19T00:09:40.720Z,72.43
2022-08-19T00:09:50.737Z,72.42
2022-08-19T00:10:01.410Z,72.49
2022-08-19T00:10:12.642Z,72.53
2022-08-19T00:10:20.680Z,72.60
2022-08-19T00:10:32.640Z,72.36
2022-08-19T00:10:42.654Z,72.58
2022-08-19T00:10:50.670Z,72.41
2022-08-19T00:11:01.628Z,72.24
2022-08-19T00:11:11.721Z,72.37
2022-08-19T00:11:26.099Z,72.82
2022-08-19T00:11:33.021Z,72.86
2022-08-19T00:11:41.073Z,72.61
2022-08-19T00:11:52.052Z,72.26
2022-08-19T00:12:03.008Z,72.39
2022-08-19T00:12:11.061Z,72.42
2022-08-19T00:12:23.020Z,72.26
2022-08-19T00:12:32.821Z,72.40
2022-08-19T00:12:46.941Z,72.35
2022-08-19T00:12:53.012Z,72.70
2022-08-19T00:13:01.052Z,72.54
2022-08-19T00:13:11.068Z,72.27
2022-08-19T00:13:23.022Z,72.32
2022-08-19T00:13:31.038Z,72.41
2022-08-19T00:13:41.084Z,72.15
2022-08-19T00:13:51.071Z,72.16
2022-08-19T00:14:01.049Z,72.21
2022-08-19T00:14:11.051Z,72.19
2022-08-19T00:14:21.837Z,72.18
2022-08-19T00:14:31.048Z,72.23
2022-08-19T00:14:41.042Z,72.19
2022-08-19T00:14:51.042Z,72.16
2022-08-19T00:15:01.062Z,72.17
2022-08-19T00:15:11.992Z,72.17
2022-08-19T00:15:22.990Z,72.29
2022-08-19T00:15:31.066Z,72.26
2022-08-19T00:15:41.941Z,72.11
2022-08-19T00:15:51.683Z,72.22
2022-08-19T00:16:01.103Z,72.15
2022-08-19T00:16:11.082Z,72.12
2022-08-19T00:16:26.228Z,72.12
2022-08-19T00:16:31.369Z,72.66
2022-08-19T00:16:41.353Z,72.28
2022-08-19T00:16:53.259Z,72.21
2022-08-19T00:17:03.261Z,72.31
2022-08-19T00:17:11.303Z,72.20
2022-08-19T00:17:23.254Z,72.07
2022-08-19T00:17:31.474Z,72.23
2022-08-19T00:17:42.075Z,72.07
2022-08-19T00:17:51.535Z,72.20
2022-08-19T00:18:21.745Z,72.63
2022-08-19T00:18:31.246Z,72.41
2022-08-19T00:18:41.736Z,72.19
2022-08-19T00:18:51.766Z,72.20
2022-08-19T00:19:01.246Z,72.20
2022-08-19T00:19:09.809Z,72.14
2022-08-19T00:19:21.776Z,72.06
2022-08-19T00:19:31.767Z,72.22
2022-08-19T00:19:41.736Z,72.18
2022-08-19T00:19:51.745Z,72.14
2022-08-19T00:20:01.741Z,72.19
2022-08-19T00:20:09.786Z,72.22
2022-08-19T00:20:21.746Z,72.00
2022-08-19T00:20:29.795Z,72.24
2022-08-19T00:20:41.756Z,72.02
2022-08-19T00:20:49.818Z,72.21
2022-08-19T00:21:00.663Z,72.01
2022-08-19T00:21:09.796Z,72.15
2022-08-19T00:21:19.798Z,72.07
2022-08-19T00:21:29.813Z,72.08
2022-08-19T00:21:39.767Z,72.06
2022-08-19T00:21:51.737Z,72.10
2022-08-19T00:22:01.717Z,72.19
2022-08-19T00:22:11.718Z,72.11
2022-08-19T00:22:21.716Z,72.06
2022-08-19T00:22:31.708Z,72.05
2022-08-19T00:22:41.708Z,72.08
2022-08-19T00:22:49.777Z,72.06
2022-08-19T00:22:59.767Z,71.90
2022-08-19T00:23:09.786Z,71.98
2022-08-19T00:23:21.718Z,72.02
2022-08-19T00:23:31.717Z,72.13
2022-08-19T00:23:41.707Z,72.02
2022-08-19T00:23:49.775Z,71.98
2022-08-19T00:24:00.636Z,71.78
2022-08-19T00:24:11.709Z,71.99
2022-08-19T00:24:20.750Z,72.05
2022-08-19T00:24:31.718Z,71.97
2022-08-19T00:24:41.708Z,72.10
2022-08-19T00:24:51.308Z,72.52
2022-08-19T00:25:02.245Z,72.17
2022-08-19T00:25:11.298Z,72.12
2022-08-19T00:25:30.029Z,71.98
2022-08-19T00:25:34.798Z,72.55
2022-08-19T00:25:44.778Z,72.33
2022-08-19T00:25:54.179Z,72.52
2022-08-19T00:26:04.185Z,72.14
2022-08-19T00:26:15.458Z,72.08
2022-08-19T00:26:24.189Z,72.17
2022-08-19T00:26:33.508Z,72.08
2022-08-19T00:26:45.477Z,72.07
2022-08-19T00:26:55.473Z,72.19
2022-08-19T00:27:25.927Z,72.57
2022-08-19T00:27:26.402Z,72.18
2022-08-19T00:27:26.419Z,72.72
2022-08-19T00:27:36.780Z,72.43
2022-08-19T00:27:44.818Z,72.29
2022-08-19T00:27:54.847Z,72.11
2022-08-19T00:28:06.780Z,72.19
2022-08-19T00:28:16.269Z,72.35
2022-08-19T00:28:26.768Z,72.26
2022-08-19T00:28:36.760Z,72.34
2022-08-19T00:28:46.779Z,72.30
2022-08-19T00:28:56.270Z,72.29
2022-08-19T00:29:06.770Z,72.18
2022-08-19T00:29:16.275Z,72.27
2022-08-19T00:29:26.758Z,72.26
2022-08-19T00:29:36.750Z,72.30
2022-08-19T00:29:46.267Z,72.27
2022-08-19T00:29:55.870Z,72.79
2022-08-19T00:30:06.278Z,72.53
2022-08-19T00:30:16.279Z,72.52
2022-08-19T00:30:25.849Z,72.48
2022-08-19T00:30:35.864Z,72.43
2022-08-19T00:30:46.301Z,72.45
2022-08-19T00:30:55.849Z,72.52
2022-08-19T00:31:06.621Z,72.48
2022-08-19T00:31:15.862Z,72.55
2022-08-19T00:31:25.850Z,72.47
2022-08-19T00:31:37.840Z,72.49
2022-08-19T00:31:45.841Z,72.64
2022-08-19T00:31:55.860Z,72.45
2022-08-19T00:32:07.809Z,72.47
2022-08-19T00:32:15.840Z,72.91
2022-08-19T00:32:27.381Z,72.73
2022-08-19T00:32:35.910Z,72.51
2022-08-19T00:32:45.911Z,72.39
2022-08-19T00:32:57.874Z,72.46
2022-08-19T00:33:05.890Z,72.60
2022-08-19T00:33:15.910Z,72.39
2022-08-19T00:33:25.938Z,72.44
2022-08-19T00:33:35.922Z,72.49
2022-08-19T00:33:46.871Z,72.47
2022-08-19T00:33:57.852Z,72.49
2022-08-19T00:34:05.921Z,72.47
2022-08-19T00:34:15.892Z,72.33
2022-08-19T00:34:26.801Z,72.40
2022-08-19T00:34:35.901Z,72.49
2022-08-19T00:34:45.901Z,72.41
2022-08-19T00:34:57.868Z,72.39
2022-08-19T00:35:05.903Z,72.57
2022-08-19T00:35:15.912Z,72.29
2022-08-19T00:35:25.902Z,72.38
2022-08-19T00:35:35.902Z,72.35
2022-08-19T00:35:45.893Z,72.32
2022-08-19T00:35:56.281Z,72.83
2022-08-19T00:36:06.088Z,72.53
2022-08-19T00:36:17.822Z,72.38
2022-08-19T00:36:27.412Z,72.51
2022-08-19T00:36:37.845Z,72.39
2022-08-19T00:36:46.149Z,72.39
2022-08-19T00:36:57.815Z,72.30
2022-08-19T00:37:05.870Z,72.46
2022-08-19T00:37:15.982Z,72.42
2022-08-19T00:37:26.002Z,72.19
2022-08-19T00:37:38.014Z,72.42
2022-08-19T00:37:47.443Z,72.64
2022-08-19T00:37:56.224Z,72.63
2022-08-19T00:38:07.922Z,72.57
2022-08-19T00:38:17.434Z,72.81
2022-08-19T00:38:35.014Z,73.12
2022-08-19T00:38:37.958Z,73.26
2022-08-19T00:38:48.985Z,72.97
2022-08-19T00:38:58.972Z,72.88
2022-08-19T00:39:08.983Z,72.75
2022-08-19T00:39:17.010Z,72.83
2022-08-19T00:39:29.032Z,72.73
2022-08-19T00:39:39.023Z,72.99
2022-08-19T00:39:49.159Z,72.94
2022-08-19T00:39:59.084Z,72.98
2022-08-19T00:40:07.120Z,72.93
2022-08-19T00:40:19.043Z,72.78
2022-08-19T00:40:29.013Z,73.05
2022-08-19T00:40:39.016Z,73.02
2022-08-19T00:40:49.023Z,73.06
2022-08-19T00:40:59.043Z,73.01
2022-08-19T00:41:09.024Z,73.06
2022-08-19T00:41:17.064Z,73.04
2022-08-19T00:41:27.123Z,72.94
2022-08-19T00:41:37.054Z,72.99
2022-08-19T00:41:49.034Z,73.02
2022-08-19T00:41:57.073Z,73.11
2022-08-19T00:42:09.033Z,72.91
2022-08-19T00:42:17.054Z,73.11
2022-08-19T00:42:27.824Z,72.90
2022-08-19T00:42:39.020Z,73.05
2022-08-19T00:42:49.011Z,73.13
2022-08-19T00:42:58.513Z,73.08
2022-08-19T00:43:08.995Z,73.00
2022-08-19T00:43:19.004Z,73.02
2022-08-19T00:43:29.016Z,73.01
2022-08-19T00:43:38.994Z,73.01
2022-08-19T00:43:49.024Z,72.99
2022-08-19T00:43:57.047Z,72.97
2022-08-19T00:44:07.066Z,72.85
2022-08-19T00:44:17.036Z,72.93
2022-08-19T00:44:29.008Z,72.96
2022-08-19T00:44:37.036Z,73.16
2022-08-19T00:44:49.017Z,72.94
2022-08-19T00:44:59.015Z,73.15
2022-08-19T00:45:07.085Z,73.05
2022-08-19T00:45:18.976Z,72.87
2022-08-19T00:45:27.105Z,73.09
2022-08-19T00:45:37.028Z,72.93
2022-08-19T00:45:47.134Z,73.04
2022-08-19T00:45:57.123Z,73.03
2022-08-19T00:46:07.135Z,73.07
2022-08-19T00:46:18.977Z,73.28
2022-08-19T00:46:27.146Z,73.33
2022-08-19T00:46:37.154Z,73.05
2022-08-19T00:46:55.616Z,73.08
2022-08-19T00:46:58.236Z,73.62
2022-08-19T00:47:07.026Z,73.40
2022-08-19T00:47:18.516Z,73.67
2022-08-19T00:47:27.870Z,73.44
2022-08-19T00:47:37.025Z,73.23
2022-08-19T00:47:48.999Z,73.18
2022-08-19T00:47:57.023Z,73.28
2022-08-19T00:48:14.692Z,73.05
2022-08-19T00:48:20.040Z,73.64
2022-08-19T00:48:30.516Z,73.35
2022-08-19T00:48:40.512Z,73.22
2022-08-19T00:48:50.536Z,73.16
2022-08-19T00:48:58.564Z,73.10
2022-08-19T00:49:09.494Z,73.02
2022-08-19T00:49:20.519Z,73.22
2022-08-19T00:49:30.516Z,73.26
2022-08-19T00:49:38.572Z,73.20
2022-08-19T00:49:48.635Z,73.01
2022-08-19T00:49:58.668Z,73.12
2022-08-19T00:50:08.641Z,73.28
2022-08-19T00:50:18.556Z,73.29
2022-08-19T00:50:30.520Z,73.25
2022-08-19T00:50:38.566Z,73.39
2022-08-19T00:50:51.982Z,73.54
2022-08-19T00:51:00.007Z,73.67
2022-08-19T00:51:10.519Z,73.46
2022-08-19T00:51:18.546Z,73.35
2022-08-19T00:51:28.697Z,73.15
2022-08-19T00:51:39.507Z,73.24
2022-08-19T00:51:48.545Z,73.29
2022-08-19T00:51:58.559Z,73.19
2022-08-19T00:52:08.574Z,73.22
2022-08-19T00:52:18.548Z,73.29
2022-08-19T00:52:28.559Z,73.31
2022-08-19T00:52:38.550Z,73.36
2022-08-19T00:52:50.524Z,73.33
2022-08-19T00:52:58.528Z,73.45
2022-08-19T00:53:10.509Z,73.24
2022-08-19T00:53:20.479Z,73.67
2022-08-19T00:53:30.489Z,73.65
2022-08-19T00:53:38.527Z,73.57
2022-08-19T00:53:48.616Z,73.39
2022-08-19T00:54:00.498Z,73.59
2022-08-19T00:54:10.479Z,73.75
2022-08-19T00:54:20.487Z,73.71
2022-08-19T00:54:32.176Z,74.10
2022-08-19T00:54:42.009Z,73.78
2022-08-19T00:54:52.610Z,73.60
2022-08-19T00:55:02.026Z,73.72
2022-08-19T00:55:10.160Z,73.65
2022-08-19T00:55:20.085Z,73.35
2022-08-19T00:55:30.138Z,73.34
2022-08-19T00:55:40.047Z,73.33
2022-08-19T00:55:52.009Z,73.40
2022-08-19T00:56:02.009Z,73.59
2022-08-19T00:56:10.058Z,73.57
2022-08-19T00:56:20.119Z,73.27
2022-08-19T00:56:30.078Z,73.33
2022-08-19T00:56:42.029Z,73.35
2022-08-19T00:56:50.639Z,73.55
2022-08-19T00:57:01.989Z,73.81
2022-08-19T00:57:10.058Z,73.76
2022-08-19T00:57:22.064Z,73.48
2022-08-19T00:57:32.019Z,73.56
2022-08-19T00:57:40.050Z,73.46
2022-08-19T00:57:52.010Z,73.25
2022-08-19T00:58:00.128Z,73.45
2022-08-19T00:58:10.087Z,73.24
2022-08-19T00:58:22.034Z,73.26
2022-08-19T00:58:30.720Z,73.44
2022-08-19T00:58:40.732Z,73.30
2022-08-19T00:58:50.739Z,73.28
2022-08-19T00:59:00.751Z,73.30
2022-08-19T00:59:11.981Z,73.30
2022-08-19T00:59:56.167Z,73.37
2022-08-19T00:59:56.469Z,73.70
2022-08-19T00:59:58.765Z,73.89
2022-08-19T01:00:00.580Z,73.81
2022-08-19T01:00:03.314Z,73.87
2022-08-19T01:00:12.794Z,73.48
2022-08-19T01:00:23.831Z,73.30
2022-08-19T01:00:31.880Z,73.32
2022-08-19T01:00:43.853Z,73.14
2022-08-19T01:00:52.732Z,73.27
2022-08-19T01:01:03.031Z,73.15
2022-08-19T01:01:13.887Z,73.16
2022-08-19T01:01:23.850Z,73.22
2022-08-19T01:01:32.706Z,73.23
2022-08-19T01:01:41.915Z,73.08
2022-08-19T01:01:53.863Z,73.14
2022-08-19T01:02:03.808Z,73.33
2022-08-19T01:02:12.340Z,73.25
2022-08-19T01:02:21.880Z,73.15
2022-08-19T01:02:33.822Z,73.18
2022-08-19T01:02:43.811Z,73.39
2022-08-19T01:02:52.924Z,73.37
2022-08-19T01:03:03.821Z,73.31
2022-08-19T01:03:11.861Z,73.44
2022-08-19T01:03:23.822Z,73.32
2022-08-19T01:03:57.020Z,73.62
2022-08-19T01:03:57.473Z,74.23
2022-08-19T01:03:58.169Z,74.03
2022-08-19T01:04:02.322Z,74.28
2022-08-19T01:04:12.321Z,73.94
2022-08-19T01:04:22.933Z,73.83
2022-08-19T01:04:32.932Z,73.80
2022-08-19T01:04:43.023Z,73.71
2022-08-19T01:04:52.941Z,73.68
2022-08-19T01:05:02.951Z,73.69
2022-08-19T01:05:12.811Z,73.70
2022-08-19T01:05:24.221Z,73.63
2022-08-19T01:05:32.964Z,73.81
2022-08-19T01:05:42.951Z,73.59
2022-08-19T01:05:54.232Z,73.63
2022-08-19T01:06:02.282Z,73.68
2022-08-19T01:06:12.971Z,73.50
2022-08-19T01:06:22.972Z,73.58
2022-08-19T01:06:32.275Z,73.55
2022-08-19T01:06:44.263Z,73.47
2022-08-19T01:06:52.284Z,73.90
2022-08-19T01:07:04.245Z,73.71
2022-08-19T01:07:15.255Z,73.66
2022-08-19T01:07:24.663Z,73.97
2022-08-19T01:07:38.202Z,73.63
2022-08-19T01:07:45.762Z,73.92
2022-08-19T01:07:55.282Z,73.71
2022-08-19T01:08:05.795Z,73.54
2022-08-19T01:08:15.783Z,73.57
2022-08-19T01:08:25.772Z,73.56
2022-08-19T01:08:35.773Z,73.52
2022-08-19T01:08:43.823Z,73.47
2022-08-19T01:08:53.833Z,73.25
2022-08-19T01:09:05.774Z,73.35
2022-08-19T01:09:14.492Z,73.53
2022-08-19T01:09:25.764Z,73.40
2022-08-19T01:09:33.812Z,73.51
2022-08-19T01:09:45.775Z,73.33
2022-08-19T01:09:55.767Z,73.60
2022-08-19T01:10:03.803Z,73.53
2022-08-19T01:10:15.764Z,73.40
2022-08-19T01:10:25.756Z,73.60
2022-08-19T01:10:36.910Z,73.52
2022-08-19T01:10:45.746Z,73.71
2022-08-19T01:10:55.745Z,73.76
2022-08-19T01:11:05.744Z,73.64
2022-08-19T01:11:15.753Z,73.64
2022-08-19T01:11:25.744Z,73.56
2022-08-19T01:11:35.748Z,73.54
2022-08-19T01:11:43.793Z,73.47
2022-08-19T01:11:55.755Z,73.30
2022-08-19T01:12:05.741Z,73.50
2022-08-19T01:12:15.775Z,73.40
2022-08-19T01:12:23.785Z,73.38
2022-08-19T01:12:34.674Z,73.23
2022-08-19T01:12:45.747Z,73.39
2022-08-19T01:12:55.734Z,73.40
2022-08-19T01:13:05.734Z,73.39
2022-08-19T01:13:15.755Z,73.38
2022-08-19T01:13:24.442Z,73.39
2022-08-19T01:13:45.624Z,73.23
2022-08-19T01:13:50.048Z,73.74
2022-08-19T01:13:55.458Z,73.80
2022-08-19T01:14:07.271Z,73.40
2022-08-19T01:14:15.327Z,73.39
2022-08-19T01:14:27.276Z,73.08
2022-08-19T01:14:37.283Z,73.27
2022-08-19T01:14:45.316Z,73.14
2022-08-19T01:14:55.335Z,73.03
2022-08-19T01:15:06.226Z,73.13
2022-08-19T01:15:17.287Z,73.18
2022-08-19T01:15:27.266Z,73.19
2022-08-19T01:15:37.273Z,73.17
2022-08-19T01:15:47.246Z,73.18
2022-08-19T01:15:55.326Z,73.21
2022-08-19T01:16:07.267Z,73.11
2022-08-19T01:16:15.305Z,73.35
2022-08-19T01:16:27.275Z,73.14
2022-08-19T01:16:36.085Z,73.34
2022-08-19T01:16:47.257Z,73.18
2022-08-19T01:16:57.246Z,73.29
2022-08-19T01:17:05.617Z,73.25
2022-08-19T01:17:15.337Z,73.16
2022-08-19T01:17:25.626Z,73.23
2022-08-19T01:17:35.636Z,73.23
2022-08-19T01:17:45.647Z,73.23
2022-08-19T01:17:55.656Z,73.23
2022-08-19T01:18:05.689Z,73.28
2022-08-19T01:18:15.668Z,73.29
2022-08-19T01:18:25.687Z,73.30
2022-08-19T01:18:35.420Z,73.30
2022-08-19T01:18:45.696Z,73.31
2022-08-19T01:18:55.697Z,73.32
2022-08-19T01:19:05.717Z,73.34
2022-08-19T01:19:15.714Z,73.36
2022-08-19T01:19:26.066Z,73.35
2022-08-19T01:19:43.977Z,73.37
2022-08-19T01:19:46.278Z,73.73
2022-08-19T01:19:55.748Z,73.50
2022-08-19T01:20:05.756Z,73.36
2022-08-19T01:20:15.766Z,73.35
2022-08-19T01:20:25.777Z,73.41
2022-08-19T01:20:35.327Z,73.39
2022-08-19T01:20:45.346Z,73.39
2022-08-19T01:20:57.278Z,73.39
2022-08-19T01:21:05.318Z,73.49
2022-08-19T01:21:17.288Z,73.34
2022-08-19T01:21:27.268Z,73.50
2022-08-19T01:21:35.318Z,73.43
2022-08-19T01:21:47.289Z,73.21
2022-08-19T01:21:57.267Z,73.42
2022-08-19T01:22:14.336Z,73.38
2022-08-19T01:22:16.872Z,73.79
2022-08-19T01:22:33.286Z,73.50
2022-08-19T01:22:39.869Z,73.90
2022-08-19T01:22:47.935Z,73.64
2022-08-19T01:22:57.936Z,73.38
2022-08-19T01:23:07.948Z,73.37
2022-08-19T01:23:17.968Z,73.39
2022-08-19T01:23:27.909Z,73.39
2022-08-19T01:23:37.939Z,73.45
2022-08-19T01:23:47.927Z,73.45
2022-08-19T01:23:58.711Z,73.45
2022-08-19T01:24:09.869Z,73.46
2022-08-19T01:24:19.848Z,73.54
2022-08-19T01:24:29.849Z,73.46
2022-08-19T01:24:42.281Z,73.43
2022-08-19T01:24:50.151Z,73.86
2022-08-19T01:25:01.480Z,73.65
2022-08-19T01:25:15.129Z,73.49
2022-08-19T01:25:19.520Z,73.73
2022-08-19T01:25:31.489Z,73.46
2022-08-19T01:25:41.472Z,73.56
2022-08-19T01:25:51.469Z,73.41
2022-08-19T01:26:00.308Z,73.43
2022-08-19T01:26:09.540Z,73.37
2022-08-19T01:26:21.490Z,73.40
2022-08-19T01:26:29.578Z,73.70
2022-08-19T01:26:39.521Z,73.65
2022-08-19T01:26:49.730Z,73.68
2022-08-19T01:27:01.686Z,73.54
2022-08-19T01:27:11.678Z,73.81
2022-08-19T01:27:20.151Z,73.87
2022-08-19T01:27:35.266Z,73.59
2022-08-19T01:27:43.108Z,74.12
2022-08-19T01:27:49.880Z,74.18
2022-08-19T01:28:03.071Z,74.27
2022-08-19T01:28:10.952Z,74.34
2022-08-19T01:28:19.850Z,73.96
2022-08-19T01:28:33.725Z,74.15
2022-08-19T01:28:42.455Z,74.24
2022-08-19T01:28:52.228Z,74.18
2022-08-19T01:29:01.063Z,74.00
2022-08-19T01:29:09.961Z,73.73
2022-08-19T01:29:19.981Z,73.68
2022-08-19T01:29:31.930Z,73.81
2022-08-19T01:29:39.966Z,73.86
2022-08-19T01:29:50.223Z,73.81
2022-08-19T01:30:00.221Z,73.85
2022-08-19T01:30:09.968Z,73.96
2022-08-19T01:30:21.932Z,73.95
2022-08-19T01:30:29.973Z,74.05
2022-08-19T01:30:44.406Z,73.83
2022-08-19T01:30:51.338Z,74.42
2022-08-19T01:31:07.974Z,74.11
2022-08-19T01:31:27.072Z,74.62
2022-08-19T01:31:27.129Z,74.51
2022-08-19T01:31:33.364Z,74.56
2022-08-19T01:31:45.042Z,74.16
2022-08-19T01:31:53.087Z,74.15
2022-08-19T01:32:05.051Z,73.87
2022-08-19T01:32:33.450Z,74.41
2022-08-19T01:32:33.984Z,74.12
2022-08-19T01:32:34.933Z,74.55
2022-08-19T01:32:46.938Z,74.12
2022-08-19T01:32:56.401Z,74.15
2022-08-19T01:33:06.892Z,74.00
2022-08-19T01:33:15.161Z,73.99
2022-08-19T01:33:24.942Z,73.87
2022-08-19T01:33:34.963Z,73.91
2022-08-19T01:33:45.731Z,73.93
2022-08-19T01:33:56.908Z,74.01
2022-08-19T01:34:06.873Z,74.08
2022-08-19T01:34:16.372Z,74.00
2022-08-19T01:34:26.883Z,73.92
2022-08-19T01:34:36.883Z,73.96
2022-08-19T01:34:46.863Z,74.01
2022-08-19T01:34:56.881Z,73.94
2022-08-19T01:35:06.863Z,73.89
2022-08-19T01:35:16.864Z,73.91
2022-08-19T01:35:26.865Z,73.92
2022-08-19T01:35:36.872Z,73.91
2022-08-19T01:35:46.863Z,73.95
2022-08-19T01:35:56.882Z,73.92
2022-08-19T01:36:04.906Z,73.95
2022-08-19T01:36:14.931Z,73.82
2022-08-19T01:36:24.923Z,73.92
2022-08-19T01:36:35.703Z,74.01
2022-08-19T01:36:46.877Z,74.21
2022-08-19T01:36:56.856Z,74.22
2022-08-19T01:37:04.976Z,74.19
2022-08-19T01:37:15.892Z,74.01
2022-08-19T01:37:27.194Z,74.61
2022-08-19T01:37:35.493Z,74.39
2022-08-19T01:37:47.445Z,74.16
2022-08-19T01:37:57.463Z,74.31
2022-08-19T01:38:07.464Z,74.22
2022-08-19T01:38:17.439Z,74.19
2022-08-19T01:38:27.424Z,74.16
2022-08-19T01:38:35.491Z,74.22
2022-08-19T01:38:46.954Z,74.55
2022-08-19T01:38:57.490Z,74.36
2022-08-19T01:39:05.466Z,74.30
2022-08-19T01:39:16.471Z,74.09
2022-08-19T01:39:27.454Z,74.30
2022-08-19T01:39:37.504Z,74.46
2022-08-19T01:39:45.556Z,74.52
2022-08-19T01:39:56.432Z,74.36
2022-08-19T01:40:09.421Z,74.50
2022-08-19T01:40:17.502Z,74.79
2022-08-19T01:40:27.405Z,74.64
2022-08-19T01:40:37.425Z,74.48
2022-08-19T01:40:46.925Z,74.44
2022-08-19T01:40:57.404Z,74.41
2022-08-19T01:41:10.889Z,74.47
2022-08-19T01:41:15.514Z,74.74
2022-08-19T01:41:27.414Z,74.47
2022-08-19T01:41:36.912Z,74.62
2022-08-19T01:41:45.475Z,74.50
2022-08-19T01:41:57.416Z,74.39
2022-08-19T01:42:07.395Z,74.53
2022-08-19T01:42:15.454Z,74.54
2022-08-19T01:42:30.048Z,74.40
2022-08-19T01:42:35.456Z,74.98
2022-08-19T01:42:45.465Z,74.72
2022-08-19T01:42:57.417Z,74.65
2022-08-19T01:43:07.404Z,74.75
2022-08-19T01:43:17.385Z,74.71
2022-08-19T01:43:25.435Z,74.70
2022-08-19T01:43:37.415Z,74.49
2022-08-19T01:44:13.615Z,75.19
2022-08-19T01:44:13.781Z,75.33
2022-08-19T01:44:18.159Z,75.36
2022-08-19T01:44:19.408Z,75.51
2022-08-19T01:44:28.816Z,75.13
2022-08-19T01:44:40.786Z,74.93
2022-08-19T01:44:50.765Z,75.04
2022-08-19T01:44:58.836Z,74.97
2022-08-19T01:45:10.780Z,74.86
2022-08-19T01:45:20.767Z,75.15
2022-08-19T01:45:28.816Z,75.11
2022-08-19T01:45:40.776Z,74.99
2022-08-19T01:45:50.275Z,75.16
2022-08-19T01:46:00.768Z,75.07
2022-08-19T01:46:08.816Z,75.03
2022-08-19T01:46:24.536Z,74.81
2022-08-19T01:46:30.688Z,75.48
2022-08-19T01:46:39.311Z,75.21
2022-08-19T01:46:49.756Z,74.98
2022-08-19T01:46:59.746Z,75.11
2022-08-19T01:47:09.748Z,75.11
2022-08-19T01:47:19.764Z,75.12
2022-08-19T01:47:29.224Z,75.10
2022-08-19T01:47:39.767Z,75.08
2022-08-19T01:49:14.971Z,76.30
2022-08-19T01:49:25.004Z,75.88
2022-08-19T01:49:34.989Z,75.63
2022-08-19T01:49:44.489Z,75.56
2022-08-19T01:49:53.034Z,75.59
2022-08-19T01:50:03.051Z,75.65
2022-08-19T01:50:13.879Z,75.81
2022-08-19T01:50:23.050Z,75.92
2022-08-19T01:50:34.990Z,75.92
2022-08-19T01:50:43.030Z,76.02
2022-08-19T01:50:53.040Z,75.78
2022-08-19T01:51:04.980Z,75.88
2022-08-19T01:51:14.969Z,76.04
2022-08-19T01:51:24.971Z,76.07
2022-08-19T01:51:40.022Z,76.09
2022-08-19T01:51:43.991Z,76.60
2022-08-19T01:51:53.043Z,76.54
2022-08-19T01:52:03.019Z,76.53
2022-08-19T01:52:14.974Z,76.60
2022-08-19T01:52:23.020Z,76.62
2022-08-19T01:52:34.970Z,76.32
2022-08-19T01:52:42.998Z,76.57
2022-08-19T01:53:02.437Z,76.31
2022-08-19T01:53:06.837Z,77.18
2022-08-19T01:53:16.526Z,77.15
2022-08-19T01:53:24.571Z,77.03
2022-08-19T01:53:34.610Z,77.23
2022-08-19T01:53:46.532Z,77.03
2022-08-19T01:53:56.512Z,77.19
2022-08-19T01:54:06.503Z,77.11
2022-08-19T01:54:23.185Z,77.13
2022-08-19T01:54:27.543Z,77.53
2022-08-19T01:54:35.656Z,77.72
2022-08-19T01:54:46.511Z,77.53
2022-08-19T01:54:56.502Z,77.18
2022-08-19T01:55:04.569Z,76.98
2022-08-19T01:55:16.513Z,76.72
2022-08-19T01:55:26.021Z,76.91
2022-08-19T01:55:34.611Z,76.85
2022-08-19T01:55:46.493Z,76.63
2022-08-19T01:55:56.042Z,76.74
2022-08-19T01:56:06.502Z,76.63
2022-08-19T01:56:14.552Z,76.78
2022-08-19T01:56:25.333Z,76.65
2022-08-19T01:56:36.512Z,76.82
2022-08-19T01:56:46.483Z,76.89
2022-08-19T01:56:56.495Z,77.09
2022-08-19T01:57:06.504Z,77.11
2022-08-19T01:57:16.482Z,77.14
2022-08-19T01:57:25.995Z,77.27
2022-08-19T01:57:34.542Z,77.15
2022-08-19T01:57:44.552Z,77.00
2022-08-19T01:57:55.460Z,77.15
2022-08-19T01:58:04.543Z,77.36
2022-08-19T01:58:16.512Z,77.25
2022-08-19T01:58:26.473Z,77.44
2022-08-19T01:58:34.533Z,77.56
2022-08-19T01:58:44.573Z,77.45
2022-08-19T01:58:54.534Z,77.74
2022-08-19T01:59:04.551Z,77.84
2022-08-19T01:59:14.533Z,78.11
2022-08-19T01:59:25.303Z,78.43
2022-08-19T01:59:36.486Z,78.63
2022-08-19T01:59:46.473Z,78.68
2022-08-19T01:59:54.524Z,78.60
2022-08-19T02:00:04.524Z,78.52
2022-08-19T02:00:16.481Z,78.80
2022-08-19T02:00:25.973Z,79.14
2022-08-19T02:00:34.514Z,79.04
2022-08-19T02:00:44.524Z,78.95
2022-08-19T02:00:56.493Z,79.14
2022-08-19T02:01:06.508Z,79.39
2022-08-19T02:01:16.081Z,79.42
2022-08-19T02:01:24.591Z,79.38
2022-08-19T02:01:36.492Z,79.63
2022-08-19T02:01:44.556Z,79.42
2022-08-19T02:01:54.524Z,79.20
2022-08-19T02:02:06.467Z,79.19
2022-08-19T02:02:16.455Z,79.17
2022-08-19T02:02:24.496Z,78.77
2022-08-19T02:02:36.458Z,78.22
2022-08-19T02:02:45.495Z,78.16
2022-08-19T02:02:56.454Z,78.05
2022-08-19T02:03:06.455Z,78.27
2022-08-19T02:03:14.495Z,78.31
2022-08-19T02:03:24.495Z,78.41
2022-08-19T02:03:36.465Z,78.86
2022-08-19T02:03:44.475Z,79.16
2022-08-19T02:03:54.484Z,79.09
2022-08-19T02:04:04.685Z,79.39
2022-08-19T02:04:14.686Z,79.07
2022-08-19T02:04:24.674Z,79.37
2022-08-19T02:04:34.704Z,79.51
2022-08-19T02:04:46.638Z,79.52
2022-08-19T02:04:54.674Z,79.72
2022-08-19T02:05:04.686Z,79.25
2022-08-19T02:05:14.675Z,78.97
2022-08-19T02:05:24.665Z,78.99
2022-08-19T02:05:34.674Z,79.29
2022-08-19T02:05:45.486Z,79.56
2022-08-19T02:05:54.666Z,79.63
2022-08-19T02:06:04.676Z,79.57
2022-08-19T02:06:14.665Z,79.58
2022-08-19T02:06:27.088Z,79.78
2022-08-19T02:06:35.641Z,80.18
2022-08-19T02:06:46.848Z,80.19
2022-08-19T02:06:54.873Z,80.50
2022-08-19T02:07:06.826Z,80.46
2022-08-19T02:07:14.866Z,81.08
2022-08-19T02:07:24.876Z,80.93
2022-08-19T02:07:34.888Z,81.00
2022-08-19T02:07:46.838Z,80.89
2022-08-19T02:07:56.336Z,80.31
2022-08-19T02:08:06.827Z,80.07
2022-08-19T02:08:14.863Z,80.04
2022-08-19T02:08:26.816Z,79.93
2022-08-19T02:08:36.806Z,79.92
2022-08-19T02:08:44.856Z,79.59
2022-08-19T02:08:57.315Z,79.56
2022-08-19T02:09:06.808Z,79.73
2022-08-19T02:09:16.808Z,79.90
2022-08-19T02:09:26.816Z,79.63
2022-08-19T02:09:36.797Z,79.42
2022-08-19T02:09:46.806Z,79.19
2022-08-19T02:09:54.863Z,79.10
2022-08-19T02:10:08.900Z,78.94
2022-08-19T02:10:17.336Z,79.67
2022-08-19T02:10:28.347Z,79.35
2022-08-19T02:10:36.524Z,79.27
2022-08-19T02:10:46.441Z,79.03
2022-08-19T02:10:56.547Z,79.02
2022-08-19T02:11:06.566Z,79.00